createdAt,value
2018-06-13T00:00:32.611Z,16.44
2018-06-13T00:03:04.760Z,16.41
2018-06-13T00:05:36.780Z,16.31
2018-06-13T00:08:08.887Z,16.29
2018-06-13T00:10:40.888Z,16.27
2018-06-13T00:13:13.034Z,16.31
2018-06-13T00:15:45.018Z,16.26
2018-06-13T00:18:17.075Z,16.24
2018-06-13T00:20:49.148Z,16.14
2018-06-13T00:23:21.145Z,16.18
2018-06-13T00:25:53.138Z,16.18
2018-06-13T00:28:25.141Z,16.22
2018-06-13T00:30:57.123Z,16.24
2018-06-13T00:33:29.088Z,16.27
2018-06-13T00:36:01.051Z,16.24
2018-06-13T00:38:33.041Z,16.27
2018-06-13T00:41:05.020Z,16.23
2018-06-13T00:43:36.982Z,16.26
2018-06-13T00:46:08.979Z,16.27
2018-06-13T00:48:41.074Z,16.25
2018-06-13T00:51:13.119Z,16.24
2018-06-13T00:53:45.130Z,16.27
2018-06-13T00:56:29.474Z,16.24
2018-06-13T00:59:01.470Z,16.20
2018-06-13T01:01:33.475Z,16.23
2018-06-13T01:04:05.539Z,16.21
2018-06-13T01:06:37.598Z,16.21
2018-06-13T01:09:09.654Z,16.19
2018-06-13T01:11:41.642Z,16.14
2018-06-13T01:14:13.643Z,16.10
2018-06-13T01:16:45.707Z,16.06
2018-06-13T01:19:17.715Z,16.07
2018-06-13T01:21:49.723Z,16.00
2018-06-13T01:24:21.754Z,16.00
2018-06-13T01:26:53.795Z,15.96
2018-06-13T01:29:25.803Z,15.96
2018-06-13T01:31:57.808Z,15.91
2018-06-13T01:34:29.799Z,15.92
2018-06-13T01:37:01.823Z,15.88
2018-06-13T01:39:33.840Z,15.85
2018-06-13T01:42:05.850Z,15.82
2018-06-13T01:44:37.861Z,15.80
2018-06-13T01:47:09.869Z,15.75
2018-06-13T01:49:41.861Z,15.73
2018-06-13T01:52:13.874Z,15.70
2018-06-13T01:54:45.874Z,15.67
2018-06-13T01:57:17.888Z,15.65
2018-06-13T01:59:49.927Z,15.51
2018-06-13T02:02:21.955Z,15.53
2018-06-13T02:04:53.949Z,15.53
2018-06-13T02:07:25.949Z,15.52
2018-06-13T02:09:57.934Z,15.51
2018-06-13T02:12:29.960Z,15.49
2018-06-13T02:15:02.035Z,15.51
2018-06-13T02:17:34.059Z,15.40
2018-06-13T02:20:06.093Z,15.40
2018-06-13T02:22:38.112Z,15.40
2018-06-13T02:25:10.139Z,15.40
2018-06-13T02:27:42.170Z,15.36
2018-06-13T02:30:14.215Z,15.31
2018-06-13T02:32:46.255Z,15.27
2018-06-13T02:35:18.422Z,15.27
2018-06-13T02:37:50.485Z,15.27
2018-06-13T02:40:22.532Z,15.23
2018-06-13T02:42:54.706Z,15.17
2018-06-13T02:45:26.797Z,15.10
2018-06-13T02:47:58.886Z,15.03
2018-06-13T02:50:30.919Z,14.96
2018-06-13T02:53:03.024Z,14.89
2018-06-13T02:55:35.095Z,14.88
2018-06-13T02:58:07.199Z,14.81
2018-06-13T03:00:39.268Z,14.77
2018-06-13T03:03:11.320Z,14.74
2018-06-13T03:05:43.397Z,14.69
2018-06-13T03:08:15.478Z,14.71
2018-06-13T03:10:47.484Z,14.72
2018-06-13T03:13:19.559Z,14.66
2018-06-13T03:15:51.603Z,14.64
2018-06-13T03:18:23.689Z,14.61
2018-06-13T03:20:55.789Z,14.61
2018-06-13T03:23:27.873Z,14.56
2018-06-13T03:25:59.957Z,14.53
2018-06-13T03:28:32.066Z,14.51
2018-06-13T03:31:04.162Z,14.42
2018-06-13T03:33:36.267Z,14.40
2018-06-13T03:36:08.333Z,14.41
2018-06-13T03:38:40.394Z,14.43
2018-06-13T03:41:12.423Z,14.46
2018-06-13T03:43:44.599Z,14.45
2018-06-13T03:46:16.595Z,14.50
2018-06-13T03:48:48.591Z,14.46
2018-06-13T03:51:20.645Z,14.47
2018-06-13T03:53:52.697Z,14.43
2018-06-13T03:56:24.748Z,14.45
2018-06-13T03:58:56.775Z,14.47
2018-06-13T04:01:28.798Z,14.43
2018-06-13T04:04:00.834Z,14.39
2018-06-13T04:06:32.845Z,14.34
2018-06-13T04:09:06.537Z,14.31
2018-06-13T04:11:38.581Z,14.25
2018-06-13T04:14:10.588Z,14.22
2018-06-13T04:16:42.633Z,14.20
2018-06-13T04:19:14.659Z,14.19
2018-06-13T04:21:46.669Z,14.18
2018-06-13T04:24:18.700Z,14.19
2018-06-13T04:26:50.735Z,14.20
2018-06-13T04:29:22.757Z,14.07
2018-06-13T04:31:54.791Z,14.05
2018-06-13T04:34:26.872Z,14.10
2018-06-13T04:36:58.940Z,14.19
2018-06-13T04:39:30.954Z,14.14
2018-06-13T04:42:03.019Z,14.17
2018-06-13T04:44:35.005Z,14.18
2018-06-13T04:47:07.072Z,14.11
2018-06-13T04:49:39.087Z,14.15
2018-06-13T04:52:11.119Z,14.20
2018-06-13T04:54:43.143Z,14.20
2018-06-13T04:57:15.147Z,14.20
2018-06-13T04:59:47.143Z,14.24
2018-06-13T05:02:19.159Z,14.35
2018-06-13T05:04:51.159Z,14.31
2018-06-13T05:07:23.172Z,14.27
2018-06-13T05:09:55.156Z,14.30
2018-06-13T05:12:27.167Z,14.40
2018-06-13T05:14:59.179Z,14.41
2018-06-13T05:17:31.159Z,14.42
2018-06-13T05:20:03.241Z,14.42
2018-06-13T05:22:35.274Z,14.40
2018-06-13T05:25:07.325Z,14.51
2018-06-13T05:27:39.340Z,14.52
2018-06-13T05:30:11.364Z,14.56
2018-06-13T05:32:43.442Z,14.61
2018-06-13T05:35:15.526Z,14.70
2018-06-13T05:37:47.571Z,14.68
2018-06-13T05:40:19.571Z,14.70
2018-06-13T05:42:51.598Z,14.62
2018-06-13T05:45:23.627Z,14.66
2018-06-13T05:47:55.628Z,14.75
2018-06-13T05:50:27.650Z,14.75
2018-06-13T05:52:59.698Z,14.74
2018-06-13T05:55:31.718Z,14.88
2018-06-13T05:58:03.814Z,14.94
2018-06-13T06:00:35.816Z,15.10
2018-06-13T06:03:07.847Z,15.18
2018-06-13T06:05:39.855Z,15.27
2018-06-13T06:08:11.874Z,15.38
2018-06-13T06:10:43.889Z,15.38
2018-06-13T06:13:16.645Z,15.62
2018-06-13T06:15:48.679Z,15.62
2018-06-13T06:18:20.753Z,15.60
2018-06-13T06:20:52.755Z,15.54
2018-06-13T06:23:24.755Z,15.41
2018-06-13T06:25:56.786Z,15.54
2018-06-13T06:28:28.969Z,15.54
2018-06-13T06:31:00.985Z,15.71
2018-06-13T06:33:33.076Z,15.63
2018-06-13T06:36:05.225Z,15.47
2018-06-13T06:38:37.282Z,15.53
2018-06-13T06:41:09.315Z,15.77
2018-06-13T06:43:41.369Z,15.75
2018-06-13T06:46:13.400Z,15.83
2018-06-13T06:48:45.614Z,16.01
2018-06-13T06:51:17.610Z,15.84
2018-06-13T06:53:49.640Z,15.88
2018-06-13T06:56:21.686Z,15.93
2018-06-13T06:58:53.714Z,15.91
2018-06-13T07:01:25.837Z,16.05
2018-06-13T07:03:57.864Z,16.17
2018-06-13T07:06:29.867Z,16.15
2018-06-13T07:09:01.987Z,16.21
2018-06-13T07:11:33.995Z,16.05
2018-06-13T07:14:06.088Z,16.26
2018-06-13T07:16:38.116Z,16.05
2018-06-13T07:19:10.170Z,15.95
2018-06-13T07:21:42.181Z,16.35
2018-06-13T07:24:14.176Z,16.35
2018-06-13T07:26:46.299Z,16.56
2018-06-13T07:29:18.332Z,16.45
2018-06-13T07:31:50.349Z,16.54
2018-06-13T07:34:22.347Z,17.15
2018-06-13T07:36:54.378Z,17.42
2018-06-13T07:39:26.456Z,17.52
2018-06-13T07:41:58.482Z,17.93
2018-06-13T07:44:30.517Z,17.47
2018-06-13T07:47:02.539Z,17.40
2018-06-13T07:49:34.567Z,17.43
2018-06-13T07:52:06.739Z,17.71
2018-06-13T07:54:38.846Z,18.14
2018-06-13T07:57:10.856Z,18.11
2018-06-13T07:59:42.883Z,17.97
2018-06-13T08:02:14.988Z,18.24
2018-06-13T08:04:47.123Z,18.64
2018-06-13T08:07:19.139Z,18.77
2018-06-13T08:09:51.148Z,18.74
2018-06-13T08:12:23.123Z,18.63
2018-06-13T08:14:55.115Z,18.89
2018-06-13T08:17:27.188Z,18.82
2018-06-13T08:19:59.176Z,18.55
2018-06-13T08:22:31.161Z,18.35
2018-06-13T08:25:03.350Z,18.23
2018-06-13T08:27:41.751Z,18.24
2018-06-13T08:30:13.766Z,18.52
2018-06-13T08:32:45.808Z,18.35
2018-06-13T08:35:17.804Z,18.66
2018-06-13T08:37:49.798Z,18.20
2018-06-13T08:40:21.821Z,18.11
2018-06-13T08:42:53.798Z,18.04
2018-06-13T08:45:25.796Z,18.17
2018-06-13T08:47:57.801Z,17.95
2018-06-13T08:50:29.859Z,17.97
2018-06-13T08:53:01.879Z,17.65
2018-06-13T08:55:33.924Z,17.45
2018-06-13T08:58:05.944Z,17.76
2018-06-13T09:00:37.983Z,17.65
2018-06-13T09:03:10.089Z,17.80
2018-06-13T09:05:42.133Z,17.41
2018-06-13T09:08:14.153Z,17.29
2018-06-13T09:10:48.322Z,17.30
2018-06-13T09:13:20.347Z,17.42
2018-06-13T09:15:52.375Z,17.30
2018-06-13T09:18:24.392Z,17.42
2018-06-13T09:20:56.411Z,17.82
2018-06-13T09:23:28.674Z,17.38
2018-06-13T09:26:00.784Z,17.00
2018-06-13T09:28:32.813Z,16.96
2018-06-13T09:31:05.847Z,17.09
2018-06-13T09:33:38.987Z,17.24
2018-06-13T09:36:11.058Z,16.78
2018-06-13T09:38:43.063Z,17.36
2018-06-13T09:41:15.065Z,17.05
2018-06-13T09:43:47.286Z,16.86
2018-06-13T09:46:19.351Z,17.19
2018-06-13T09:48:52.458Z,17.42
2018-06-13T09:51:24.479Z,17.79
2018-06-13T09:53:56.494Z,18.15
2018-06-13T09:56:28.509Z,18.69
2018-06-13T09:59:06.145Z,18.68
2018-06-13T10:01:43.911Z,18.10
2018-06-13T10:04:15.867Z,18.23
2018-06-13T10:06:48.087Z,17.76
2018-06-13T10:09:20.114Z,18.20
2018-06-13T10:11:52.107Z,17.85
2018-06-13T10:14:24.095Z,17.74
2018-06-13T10:16:56.128Z,18.05
2018-06-13T10:19:28.168Z,17.83
2018-06-13T10:22:00.158Z,17.65
2018-06-13T10:24:32.216Z,17.57
2018-06-13T10:27:10.128Z,17.56
2018-06-13T10:29:42.167Z,17.65
2018-06-13T10:32:14.185Z,17.82
2018-06-13T10:34:46.159Z,17.80
2018-06-13T10:37:18.155Z,17.81
2018-06-13T10:39:50.154Z,17.52
2018-06-13T10:42:22.175Z,17.41
2018-06-13T10:44:54.164Z,17.55
2018-06-13T10:47:26.164Z,17.57
2018-06-13T10:49:58.162Z,18.09
2018-06-13T10:52:30.187Z,18.40
2018-06-13T10:55:02.225Z,18.62
2018-06-13T10:57:34.267Z,18.79
2018-06-13T11:00:06.361Z,18.88
2018-06-13T11:02:38.399Z,18.83
2018-06-13T11:05:10.436Z,18.89
2018-06-13T11:07:42.485Z,18.81
2018-06-13T11:10:14.537Z,19.85
2018-06-13T11:12:46.546Z,19.74
2018-06-13T11:15:18.570Z,19.36
2018-06-13T11:17:50.588Z,19.17
2018-06-13T11:20:22.613Z,19.16
2018-06-13T11:22:54.616Z,19.30
2018-06-13T11:25:26.625Z,20.07
2018-06-13T11:27:58.737Z,20.06
2018-06-13T11:30:30.788Z,19.76
2018-06-13T11:33:02.862Z,18.91
2018-06-13T11:35:34.876Z,18.72
2018-06-13T11:38:06.932Z,19.32
2018-06-13T11:40:38.992Z,19.43
2018-06-13T11:43:11.999Z,19.47
2018-06-13T11:45:43.996Z,18.50
2018-06-13T11:48:16.062Z,18.09
2018-06-13T11:50:48.111Z,18.75
2018-06-13T11:53:20.120Z,18.89
2018-06-13T11:55:52.101Z,18.67
2018-06-13T11:58:24.134Z,18.24
2018-06-13T12:00:56.129Z,18.46
2018-06-13T12:03:28.328Z,18.47
2018-06-13T12:06:00.349Z,19.07
2018-06-13T12:08:32.467Z,18.95
2018-06-13T12:11:04.513Z,18.95
2018-06-13T12:13:36.677Z,18.87
2018-06-13T12:16:08.747Z,18.63
2018-06-13T12:18:40.907Z,18.70
2018-06-13T12:21:13.042Z,18.57
2018-06-13T12:23:45.088Z,18.37
2018-06-13T12:26:17.220Z,18.36
2018-06-13T12:28:49.276Z,18.41
2018-06-13T12:31:21.278Z,18.67
2018-06-13T12:33:53.706Z,18.46
2018-06-13T12:36:25.723Z,18.85
2018-06-13T12:38:57.885Z,18.81
2018-06-13T12:41:29.921Z,18.48
2018-06-13T12:44:02.832Z,18.42
2018-06-13T12:46:35.255Z,18.47
2018-06-13T12:49:07.296Z,18.43
2018-06-13T12:51:39.308Z,18.61
2018-06-13T12:54:11.318Z,18.98
2018-06-13T12:56:43.422Z,18.63
2018-06-13T12:59:15.446Z,18.82
2018-06-13T13:01:47.455Z,18.41
2018-06-13T13:04:19.469Z,18.29
2018-06-13T13:06:51.483Z,18.61
2018-06-13T13:09:23.507Z,19.00
2018-06-13T13:11:55.536Z,18.85
2018-06-13T13:14:27.723Z,18.77
2018-06-13T13:16:59.831Z,19.24
2018-06-13T13:19:31.907Z,19.50
2018-06-13T13:22:04.077Z,18.98
2018-06-13T13:24:36.092Z,19.18
2018-06-13T13:27:08.303Z,18.94
2018-06-13T13:29:40.320Z,18.72
2018-06-13T13:32:12.337Z,18.87
2018-06-13T13:34:44.399Z,19.21
2018-06-13T13:37:16.614Z,18.56
2018-06-13T13:39:48.838Z,18.57
2018-06-13T13:42:21.109Z,18.70
2018-06-13T13:44:53.276Z,18.68
2018-06-13T13:47:25.286Z,18.75
2018-06-13T13:49:57.396Z,18.88
2018-06-13T13:52:29.418Z,18.85
2018-06-13T13:55:01.489Z,19.01
2018-06-13T13:57:33.509Z,19.39
2018-06-13T14:00:05.593Z,19.27
2018-06-13T14:02:37.601Z,19.50
2018-06-13T14:05:09.763Z,19.98
2018-06-13T14:07:42.881Z,20.08
2018-06-13T14:10:15.013Z,20.49
2018-06-13T14:12:47.037Z,19.49
2018-06-13T14:15:19.048Z,19.85
2018-06-13T14:17:51.048Z,20.02
2018-06-13T14:20:23.054Z,19.62
2018-06-13T14:22:55.047Z,19.74
2018-06-13T14:25:27.088Z,19.32
2018-06-13T14:27:59.131Z,19.60
2018-06-13T14:30:31.151Z,19.36
2018-06-13T14:33:03.188Z,19.62
2018-06-13T14:35:35.251Z,19.39
2018-06-13T14:38:07.315Z,19.35
2018-06-13T14:40:39.343Z,19.14
2018-06-13T14:43:11.412Z,19.45
2018-06-13T14:45:43.870Z,18.89
2018-06-13T14:48:15.911Z,19.01
2018-06-13T14:50:47.952Z,18.98
2018-06-13T14:53:19.966Z,19.05
2018-06-13T14:55:57.637Z,19.34
2018-06-13T14:58:29.912Z,19.49
2018-06-13T15:01:02.999Z,19.73
2018-06-13T15:03:35.042Z,19.57
2018-06-13T15:06:07.064Z,19.05
2018-06-13T15:08:39.065Z,18.98
2018-06-13T15:11:11.150Z,18.34
2018-06-13T15:13:43.157Z,17.81
2018-06-13T15:16:15.251Z,17.79
2018-06-13T15:18:47.264Z,17.74
2018-06-13T15:21:19.333Z,17.69
2018-06-13T15:23:51.424Z,17.66
2018-06-13T15:26:23.455Z,17.60
2018-06-13T15:28:55.490Z,17.62
2018-06-13T15:31:27.490Z,17.71
2018-06-13T15:33:59.507Z,17.80
2018-06-13T15:36:31.649Z,17.71
2018-06-13T15:39:07.376Z,17.64
2018-06-13T15:41:39.486Z,17.93
2018-06-13T15:44:11.532Z,18.02
2018-06-13T15:46:46.905Z,17.84
2018-06-13T15:49:19.050Z,17.92
2018-06-13T15:51:51.660Z,17.76
2018-06-13T15:54:23.638Z,17.39
2018-06-13T15:56:55.638Z,17.15
2018-06-13T15:59:27.643Z,17.11
2018-06-13T16:01:59.629Z,17.40
2018-06-13T16:04:31.661Z,17.33
2018-06-13T16:07:03.683Z,17.30
2018-06-13T16:09:35.815Z,17.36
2018-06-13T16:12:07.883Z,17.88
2018-06-13T16:14:39.890Z,17.93
2018-06-13T16:17:11.948Z,18.06
2018-06-13T16:19:45.964Z,17.83
2018-06-13T16:22:17.986Z,17.42
2018-06-13T16:24:52.051Z,17.55
2018-06-13T16:27:24.051Z,17.62
2018-06-13T16:29:56.124Z,17.69
2018-06-13T16:32:28.143Z,17.63
2018-06-13T16:35:00.185Z,17.73
2018-06-13T16:37:32.279Z,17.33
2018-06-13T16:40:04.362Z,17.34
2018-06-13T16:42:36.434Z,17.02
2018-06-13T16:45:08.454Z,17.30
2018-06-13T16:47:40.538Z,17.36
2018-06-13T16:50:24.219Z,17.19
2018-06-13T16:54:01.953Z,17.21
2018-06-13T16:56:34.064Z,17.17
2018-06-13T16:59:06.096Z,17.16
2018-06-13T17:01:38.137Z,17.15
2018-06-13T17:04:10.264Z,17.06
2018-06-13T17:06:42.390Z,16.89
2018-06-13T17:09:14.579Z,16.95
2018-06-13T17:11:46.658Z,17.00
2018-06-13T17:14:18.724Z,17.19
2018-06-13T17:16:50.855Z,17.18
2018-06-13T17:19:45.523Z,17.18
2018-06-13T17:22:18.666Z,17.17
2018-06-13T17:24:51.163Z,17.23
2018-06-13T17:27:23.296Z,17.30
2018-06-13T17:29:55.885Z,17.15
2018-06-13T17:32:28.196Z,17.09
2018-06-13T17:35:00.391Z,17.02
2018-06-13T17:37:32.658Z,16.89
2018-06-13T17:40:04.827Z,16.97
2018-06-13T17:42:37.101Z,16.98
2018-06-13T17:45:09.270Z,17.01
2018-06-13T17:47:41.443Z,17.12
2018-06-13T17:50:13.547Z,17.23
2018-06-13T17:52:45.579Z,17.35
2018-06-13T17:55:17.651Z,17.22
2018-06-13T17:57:49.638Z,17.01
2018-06-13T18:00:21.634Z,16.99
2018-06-13T18:02:53.705Z,17.08
2018-06-13T18:05:25.735Z,17.17
2018-06-13T18:07:57.731Z,17.21
2018-06-13T18:10:29.710Z,16.97
2018-06-13T18:13:01.687Z,16.94
2018-06-13T18:15:33.707Z,16.97
2018-06-13T18:18:05.730Z,16.98
2018-06-13T18:20:37.740Z,16.81
2018-06-13T18:23:09.751Z,16.74
2018-06-13T18:25:41.714Z,16.75
2018-06-13T18:28:13.775Z,16.76
2018-06-13T18:30:45.774Z,16.56
2018-06-13T18:33:17.783Z,16.55
2018-06-13T18:35:50.669Z,16.54
2018-06-13T18:38:22.792Z,16.43
2018-06-13T18:40:54.863Z,16.52
2018-06-13T18:43:26.843Z,16.40
2018-06-13T18:45:58.988Z,16.37
2018-06-13T18:48:31.076Z,16.29
2018-06-13T18:51:03.179Z,16.24
2018-06-13T18:53:35.274Z,16.18
2018-06-13T18:56:07.343Z,16.17
2018-06-13T18:58:39.359Z,16.17
2018-06-13T19:01:11.390Z,16.13
2018-06-13T19:03:44.205Z,16.06
2018-06-13T19:06:16.342Z,16.07
2018-06-13T19:08:48.383Z,15.96
2018-06-13T19:11:20.420Z,15.89
2018-06-13T19:13:52.434Z,15.89
2018-06-13T19:16:24.459Z,15.84
2018-06-13T19:18:57.311Z,15.87
2018-06-13T19:21:29.307Z,15.80
2018-06-13T19:24:01.363Z,15.77
2018-06-13T19:26:33.482Z,15.70
2018-06-13T19:29:05.626Z,15.70
2018-06-13T19:31:37.683Z,15.68
2018-06-13T19:34:09.706Z,15.60
2018-06-13T19:36:41.843Z,15.56
2018-06-13T19:39:13.873Z,15.54
2018-06-13T19:41:45.818Z,15.56
2018-06-13T19:44:17.895Z,15.51
2018-06-13T19:46:49.882Z,15.43
2018-06-13T19:49:21.921Z,15.48
2018-06-13T19:51:53.912Z,15.48
2018-06-13T19:54:31.920Z,15.43
2018-06-13T19:57:03.974Z,15.40
2018-06-13T19:59:36.069Z,15.43
2018-06-13T20:02:08.107Z,15.37
2018-06-13T20:04:45.848Z,15.34
2018-06-13T20:07:17.843Z,15.36
2018-06-13T20:09:49.830Z,15.34
2018-06-13T20:12:45.265Z,15.30
2018-06-13T20:15:22.819Z,15.26
2018-06-13T20:18:00.431Z,15.25
2018-06-13T20:20:36.486Z,15.26
2018-06-13T20:23:08.495Z,15.23
2018-06-13T20:25:46.127Z,15.21
2018-06-13T20:28:23.951Z,15.18
2018-06-13T20:31:01.655Z,15.12
2018-06-13T20:33:33.673Z,15.22
2018-06-13T20:36:05.677Z,15.13
2018-06-13T20:38:37.734Z,15.20
2018-06-13T20:41:09.745Z,15.21
2018-06-13T20:43:41.763Z,15.22
2018-06-13T20:46:13.773Z,15.15
2018-06-13T20:48:46.641Z,15.16
2018-06-13T20:51:18.775Z,15.12
2018-06-13T20:53:50.806Z,15.16
2018-06-13T20:56:22.744Z,15.13
2018-06-13T20:58:54.773Z,15.10
2018-06-13T21:01:26.906Z,15.09
2018-06-13T21:03:58.967Z,15.07
2018-06-13T21:06:30.967Z,15.10
2018-06-13T21:09:04.740Z,15.02
2018-06-13T21:11:37.072Z,14.97
2018-06-13T21:14:09.164Z,14.98
2018-06-13T21:16:41.170Z,14.95
2018-06-13T21:19:13.252Z,14.94
2018-06-13T21:21:45.275Z,14.93
2018-06-13T21:24:17.270Z,14.93
2018-06-13T21:26:49.264Z,14.86
2018-06-13T21:29:21.290Z,14.88
2018-06-13T21:31:53.266Z,14.83
2018-06-13T21:34:25.300Z,14.83
2018-06-13T21:36:57.298Z,14.84
2018-06-13T21:39:29.311Z,14.81
2018-06-13T21:42:01.312Z,14.80
2018-06-13T21:44:33.375Z,14.80
2018-06-13T21:47:05.383Z,14.76
2018-06-13T21:49:37.484Z,14.72
2018-06-13T21:52:09.620Z,14.74
2018-06-13T21:54:41.590Z,14.74
2018-06-13T21:57:13.591Z,14.74
2018-06-13T21:59:45.605Z,14.69
2018-06-13T22:02:17.600Z,14.71
2018-06-13T22:04:49.615Z,14.66
2018-06-13T22:07:21.606Z,14.69
2018-06-13T22:09:53.644Z,14.63
2018-06-13T22:12:25.703Z,14.61
2018-06-13T22:14:57.717Z,14.59
2018-06-13T22:17:29.711Z,14.61
2018-06-13T22:20:01.720Z,14.55
2018-06-13T22:22:35.789Z,14.53
2018-06-13T22:25:07.796Z,14.54
2018-06-13T22:27:39.839Z,14.48
2018-06-13T22:30:11.935Z,14.40
2018-06-13T22:32:43.945Z,14.41
2018-06-13T22:35:16.029Z,14.39
2018-06-13T22:37:48.029Z,14.39
2018-06-13T22:40:20.063Z,14.42
2018-06-13T22:42:52.055Z,14.39
2018-06-13T22:45:24.062Z,14.40
2018-06-13T22:47:56.099Z,14.38
2018-06-13T22:50:28.130Z,14.29
2018-06-13T22:53:00.100Z,14.34
2018-06-13T22:55:32.120Z,14.38
2018-06-13T22:58:04.143Z,14.31
2018-06-13T23:01:08.654Z,14.29
2018-06-13T23:03:40.635Z,14.22
2018-06-13T23:06:12.735Z,14.27
2018-06-13T23:08:44.667Z,14.29
2018-06-13T23:11:16.654Z,14.28
2018-06-13T23:13:48.591Z,14.28
2018-06-13T23:16:20.668Z,14.27
2018-06-13T23:18:52.630Z,14.15
2018-06-13T23:21:24.770Z,14.17
2018-06-13T23:23:57.931Z,14.22
2018-06-13T23:26:30.071Z,14.17
2018-06-13T23:29:02.157Z,14.21
2018-06-13T23:31:34.240Z,14.19
2018-06-13T23:34:06.285Z,14.23
2018-06-13T23:36:38.366Z,14.20
2018-06-13T23:39:10.394Z,14.15
2018-06-13T23:41:42.481Z,14.19
2018-06-13T23:44:14.526Z,14.19
2018-06-13T23:46:46.701Z,14.15
2018-06-13T23:49:18.698Z,14.13
2018-06-13T23:51:50.775Z,14.13
2018-06-13T23:54:22.846Z,14.11
2018-06-13T23:56:54.916Z,14.10
2018-06-13T23:59:26.976Z,14.11
